Time;durP1;ratioP1;P1;durP2;ratioP2;P2;SDS_P1;SDS_P2;PMS_P1;PMS_P2;Temp;Humidity;BMP_temperature;BMP_pressure;BME280_temperature;BME280_humidity;BME280_pressure;Samples;Min_cycle;Max_cycle;Signal;HPM_P1;HPM_P2
2023/10/10 00:00:28;;;;;;;;;;;19.10;85.30;;;;;;4930432;29;19911;-72
2023/10/10 00:02:54;;;;;;;;;;;19.20;85.30;;;;;;4930665;29;19962;-72
2023/10/10 00:05:33;;;;;;;;;;;19.20;85.30;;;;;;4961185;28;19922;-72
2023/10/10 00:08:00;;;;;;;;;;;19.20;85.30;;;;;;4930440;29;19915;-72
2023/10/10 00:10:27;;;;;;;;;;;19.20;85.30;;;;;;4930262;29;20017;-72
2023/10/10 00:12:53;;;;;;;;;;;19.20;85.20;;;;;;4930300;29;20409;-72
2023/10/10 00:15:24;;;;;;;;;;;19.10;85.10;;;;;;4961064;28;19940;-72
2023/10/10 00:17:50;;;;;;;;;;;19.00;85.10;;;;;;4928991;29;20275;-72
2023/10/10 00:20:22;;;;;;;;;;;19.00;85.10;;;;;;4932510;29;19997;-72
2023/10/10 00:22:48;;;;;;;;;;;18.90;85.10;;;;;;4933815;29;20280;-72
2023/10/10 00:25:23;;;;;;;;;;;18.90;85.10;;;;;;4933610;29;19978;-72
2023/10/10 00:27:55;;;;;;;;;;;18.80;85.10;;;;;;4933585;29;19918;-72
2023/10/10 00:30:22;;;;;;;;;;;18.80;85.10;;;;;;4933526;29;19915;-72
2023/10/10 00:32:50;;;;;;;;;;;18.80;85.20;;;;;;4964044;28;19959;-72
2023/10/10 00:35:17;;;;;;;;;;;18.80;85.20;;;;;;4933510;29;19915;-72
2023/10/10 00:37:44;;;;;;;;;;;18.70;85.10;;;;;;4933457;29;19919;-72
2023/10/10 00:40:12;;;;;;;;;;;18.70;85.20;;;;;;4933233;29;19937;-72
2023/10/10 00:42:42;;;;;;;;;;;18.80;85.20;;;;;;4933275;29;19914;-72
2023/10/10 00:45:14;;;;;;;;;;;18.80;85.20;;;;;;4933306;29;20419;-72
2023/10/10 00:47:47;;;;;;;;;;;18.80;85.20;;;;;;4932017;29;19914;-72
2023/10/10 00:50:18;;;;;;;;;;;18.80;85.30;;;;;;4933125;29;19915;-72
2023/10/10 00:52:45;;;;;;;;;;;18.90;85.30;;;;;;4933169;29;19918;-72
2023/10/10 00:55:11;;;;;;;;;;;18.90;85.30;;;;;;4933202;29;19911;-72
2023/10/10 00:57:37;;;;;;;;;;;18.90;85.20;;;;;;4932765;29;19938;-72
2023/10/10 01:00:07;;;;;;;;;;;18.90;85.20;;;;;;4932945;29;20022;-72
2023/10/10 01:02:34;;;;;;;;;;;18.90;85.10;;;;;;4933010;29;19919;-72
2023/10/10 01:05:11;;;;;;;;;;;19.00;85.20;;;;;;4963308;28;19915;-72
2023/10/10 01:07:37;;;;;;;;;;;18.90;85.00;;;;;;4932893;29;20405;-72
2023/10/10 01:10:13;;;;;;;;;;;18.90;85.00;;;;;;4932757;29;19946;-72
2023/10/10 01:12:39;;;;;;;;;;;18.90;85.10;;;;;;4932884;29;19910;-72
2023/10/10 01:15:25;;;;;;;;;;;18.90;85.10;;;;;;4932736;29;19922;-72
2023/10/10 01:17:51;;;;;;;;;;;18.90;85.40;;;;;;4931508;29;19919;-72
2023/10/10 01:20:33;;;;;;;;;;;18.90;85.20;;;;;;4932562;29;20371;-72
2023/10/10 01:23:00;;;;;;;;;;;18.90;85.20;;;;;;4931610;29;20320;-72
2023/10/10 01:28:34;;;;;;;;;;;18.90;85.20;;;;;;4932578;29;20264;-72
2023/10/10 01:33:42;;;;;;;;;;;18.90;85.20;;;;;;4932841;29;19971;-72
2023/10/10 01:36:22;;;;;;;;;;;18.90;85.20;;;;;;4932383;29;19966;-72
2023/10/10 01:38:56;;;;;;;;;;;18.90;85.20;;;;;;4932250;29;19963;-72
2023/10/10 01:41:23;;;;;;;;;;;18.90;85.20;;;;;;4932187;29;19934;-72
2023/10/10 01:43:53;;;;;;;;;;;18.90;85.20;;;;;;4932215;29;19955;-71
2023/10/10 01:46:28;;;;;;;;;;;18.90;85.20;;;;;;4930846;29;19911;-71
2023/10/10 01:48:57;;;;;;;;;;;18.90;85.20;;;;;;4932492;29;20261;-71
2023/10/10 01:51:28;;;;;;;;;;;18.90;85.20;;;;;;4932171;29;20331;-71
2023/10/10 01:53:55;;;;;;;;;;;18.90;85.70;;;;;;4932041;29;20371;-71
2023/10/10 01:56:22;;;;;;;;;;;18.90;85.20;;;;;;4931910;29;20283;-71
2023/10/10 01:58:53;;;;;;;;;;;18.90;85.20;;;;;;4931633;29;19926;-71
2023/10/10 02:01:19;;;;;;;;;;;18.90;85.20;;;;;;4931872;29;19970;-71
2023/10/10 02:03:46;;;;;;;;;;;18.90;85.20;;;;;;4931771;29;19915;-71
2023/10/10 02:06:24;;;;;;;;;;;18.90;85.20;;;;;;4931872;29;20010;-71
2023/10/10 02:08:51;;;;;;;;;;;19.00;85.20;;;;;;4930393;29;19946;-71
2023/10/10 02:11:20;;;;;;;;;;;19.00;85.20;;;;;;4931565;29;19922;-71
2023/10/10 02:13:50;;;;;;;;;;;19.00;85.20;;;;;;4931617;29;19911;-71
2023/10/10 02:16:17;;;;;;;;;;;18.90;85.10;;;;;;4962016;28;20054;-71
2023/10/10 02:18:51;;;;;;;;;;;18.90;85.10;;;;;;4931358;29;20001;-71
2023/10/10 02:21:31;;;;;;;;;;;18.90;85.10;;;;;;4930129;29;20280;-71
2023/10/10 02:24:48;;;;;;;;;;;18.90;85.00;;;;;;4931365;29;19919;-71
2023/10/10 02:26:51;;;;;;;;;;;18.90;85.00;;;;;;4923301;29;19922;-71
2023/10/10 02:29:19;;;;;;;;;;;18.90;85.00;;;;;;4931515;29;20388;-71
2023/10/10 02:31:51;;;;;;;;;;;18.80;85.00;;;;;;4931221;29;19926;-71
2023/10/10 02:34:19;;;;;;;;;;;18.80;85.00;;;;;;4960652;28;19919;-71
2023/10/10 02:36:58;;;;;;;;;;;18.80;85.10;;;;;;4931087;29;20395;-71
2023/10/10 02:39:29;;;;;;;;;;;18.80;85.10;;;;;;4931430;29;19915;-72
2023/10/10 02:42:01;;;;;;;;;;;18.80;85.30;;;;;;4930865;29;19921;-72
2023/10/10 02:44:38;;;;;;;;;;;18.80;85.30;;;;;;4931154;29;19921;-71
2023/10/10 02:47:04;;;;;;;;;;;18.70;85.30;;;;;;4931106;29;19915;-71
2023/10/10 02:49:30;;;;;;;;;;;18.80;85.40;;;;;;4931030;29;19911;-71
2023/10/10 02:51:56;;;;;;;;;;;18.80;85.40;;;;;;4931000;29;20374;-71
2023/10/10 02:56:56;;;;;;;;;;;18.90;85.30;;;;;;4930963;29;19915;-71
2023/10/10 02:59:31;;;;;;;;;;;18.90;85.20;;;;;;4930773;29;20029;-71
2023/10/10 03:01:57;;;;;;;;;;;18.90;85.20;;;;;;4930867;29;20332;-71
2023/10/10 03:04:50;;;;;;;;;;;18.80;85.30;;;;;;4931076;29;19942;-71
2023/10/10 03:07:09;;;;;;;;;;;18.80;85.30;;;;;;4930764;29;19915;-71
2023/10/10 03:09:42;;;;;;;;;;;18.70;85.40;;;;;;4930902;29;19915;-71
2023/10/10 03:12:17;;;;;;;;;;;18.70;85.30;;;;;;4929502;29;19911;-71
2023/10/10 03:14:43;;;;;;;;;;;18.70;85.30;;;;;;4930807;29;19997;-71
2023/10/10 03:17:31;;;;;;;;;;;18.60;85.40;;;;;;4930739;29;19915;-71
2023/10/10 03:20:13;;;;;;;;;;;18.60;85.40;;;;;;4929346;29;19919;-71
2023/10/10 03:25:28;;;;;;;;;;;18.50;85.50;;;;;;4931123;29;19971;-71
2023/10/10 03:28:05;;;;;;;;;;;18.50;85.60;;;;;;4930750;29;19922;-71
2023/10/10 03:30:51;;;;;;;;;;;18.50;85.60;;;;;;4930640;29;19918;-71
2023/10/10 05:25:23;;;;;;;;;;;18.60;85.00;;;;;;4932139;29;19970;-71
2023/10/10 05:27:51;;;;;;;;;;;18.60;85.00;;;;;;4931909;29;19967;-71
2023/10/10 05:30:23;;;;;;;;;;;18.70;85.00;;;;;;4931745;29;19915;-71
2023/10/10 05:33:03;;;;;;;;;;;18.70;85.00;;;;;;4931743;29;19915;-71
2023/10/10 05:35:36;;;;;;;;;;;18.70;84.90;;;;;;4931915;29;19954;-71
2023/10/10 05:38:04;;;;;;;;;;;18.70;84.90;;;;;;4931843;29;19925;-71
2023/10/10 05:40:33;;;;;;;;;;;18.70;84.90;;;;;;4931724;29;19911;-71
2023/10/10 05:43:09;;;;;;;;;;;18.70;84.90;;;;;;4931830;29;19915;-71
2023/10/10 05:45:38;;;;;;;;;;;18.70;84.90;;;;;;4931536;29;19938;-71
2023/10/10 05:48:05;;;;;;;;;;;18.70;84.90;;;;;;4931768;29;19934;-71
2023/10/10 05:50:34;;;;;;;;;;;18.70;84.90;;;;;;4946390;29;20265;-71
2023/10/10 05:53:05;;;;;;;;;;;18.70;85.00;;;;;;4931848;29;19974;-71
2023/10/10 05:55:34;;;;;;;;;;;18.70;85.00;;;;;;4931495;29;19911;-71
2023/10/10 05:58:02;;;;;;;;;;;18.70;84.90;;;;;;4931344;29;20406;-72
2023/10/10 06:00:28;;;;;;;;;;;18.70;84.90;;;;;;4931160;29;19915;-71
2023/10/10 06:02:54;;;;;;;;;;;18.70;84.90;;;;;;4930295;29;19922;-71
2023/10/10 06:05:20;;;;;;;;;;;18.70;84.90;;;;;;4931422;29;19946;-71
2023/10/10 06:07:48;;;;;;;;;;;18.80;85.00;;;;;;4931087;29;20406;-71
2023/10/10 06:10:16;;;;;;;;;;;18.80;85.00;;;;;;4931023;29;20374;-70
2023/10/10 06:12:52;;;;;;;;;;;18.80;85.00;;;;;;4931578;29;19914;-70
2023/10/10 06:15:17;;;;;;;;;;;18.80;84.90;;;;;;4931899;29;19910;-70
2023/10/10 06:17:48;;;;;;;;;;;18.70;84.90;;;;;;4930256;29;19925;-70
2023/10/10 06:20:16;;;;;;;;;;;18.80;85.00;;;;;;4930998;29;19911;-70
2023/10/10 06:22:45;;;;;;;;;;;18.80;84.90;;;;;;4931306;29;19962;-71
2023/10/10 06:25:17;;;;;;;;;;;18.80;84.90;;;;;;4931193;29;20162;-70
2023/10/10 06:27:45;;;;;;;;;;;18.80;84.90;;;;;;4930909;29;19911;-70
2023/10/10 06:30:17;;;;;;;;;;;18.80;84.90;;;;;;4930512;29;19911;-71
2023/10/10 06:32:49;;;;;;;;;;;18.70;84.90;;;;;;4931185;29;19999;-71
2023/10/10 06:37:44;;;;;;;;;;;18.80;85.00;;;;;;4934889;29;19989;-75
2023/10/10 06:40:10;;;;;;;;;;;18.80;85.00;;;;;;4931454;29;19919;-75
2023/10/10 06:42:36;;;;;;;;;;;18.80;85.00;;;;;;4930163;29;20371;-71
2023/10/10 06:45:08;;;;;;;;;;;18.80;85.00;;;;;;4930525;29;19911;-70
2023/10/10 06:47:34;;;;;;;;;;;18.80;85.00;;;;;;4930072;29;19915;-72
2023/10/10 06:50:01;;;;;;;;;;;18.80;85.00;;;;;;4930656;29;19918;-78
2023/10/10 06:52:29;;;;;;;;;;;18.80;85.00;;;;;;4930553;29;19945;-77
2023/10/10 06:54:55;;;;;;;;;;;18.80;85.00;;;;;;4930495;29;19997;-73
2023/10/10 06:57:36;;;;;;;;;;;18.80;85.00;;;;;;4930079;29;20055;-74
2023/10/10 07:02:47;;;;;;;;;;;18.80;85.00;;;;;;4929736;29;19994;-74
2023/10/10 07:05:15;;;;;;;;;;;18.80;85.00;;;;;;4929357;29;19986;-74
2023/10/10 07:07:44;;;;;;;;;;;18.80;85.00;;;;;;4929178;29;19919;-74
2023/10/10 07:10:09;;;;;;;;;;;18.80;85.00;;;;;;4930476;29;19947;-74
2023/10/10 07:12:35;;;;;;;;;;;18.80;84.90;;;;;;4928462;29;20013;-74
2023/10/10 07:15:06;;;;;;;;;;;18.80;85.00;;;;;;4930119;29;19921;-75
2023/10/10 07:17:32;;;;;;;;;;;18.80;85.40;;;;;;4928335;29;19923;-75
2023/10/10 07:22:33;;;;;;;;;;;18.90;85.00;;;;;;4930209;29;20358;-77
2023/10/10 07:25:59;;;;;;;;;;;18.90;85.00;;;;;;4930169;29;19926;-75
2023/10/10 07:28:00;;;;;;;;;;;18.90;84.90;;;;;;4922251;29;20075;-76
2023/10/10 07:30:33;;;;;;;;;;;18.90;84.90;;;;;;4932006;29;20069;-75
2023/10/10 07:33:01;;;;;;;;;;;19.00;85.00;;;;;;4933701;29;20022;-75
2023/10/10 07:35:28;;;;;;;;;;;19.00;85.00;;;;;;4933771;29;19986;-75
2023/10/10 07:37:58;;;;;;;;;;;19.00;85.00;;;;;;4932396;29;20387;-75
2023/10/10 07:40:30;;;;;;;;;;;19.10;85.00;;;;;;4933765;29;19915;-75
2023/10/10 07:42:59;;;;;;;;;;;19.10;85.00;;;;;;4933944;29;19911;-76
2023/10/10 07:45:43;;;;;;;;;;;19.10;85.00;;;;;;4933543;29;20074;-76
2023/10/10 07:50:35;;;;;;;;;;;19.20;85.00;;;;;;4933677;29;20317;-73
2023/10/10 07:53:06;;;;;;;;;;;19.20;85.00;;;;;;4931877;29;19915;-72
2023/10/10 07:55:52;;;;;;;;;;;19.20;85.00;;;;;;4933416;29;19915;-72
2023/10/10 07:58:23;;;;;;;;;;;19.30;85.00;;;;;;4931778;29;19926;-73
2023/10/10 08:00:51;;;;;;;;;;;19.30;85.00;;;;;;4933360;29;19932;-72
2023/10/10 08:03:20;;;;;;;;;;;19.30;85.00;;;;;;4933346;29;19982;-71
2023/10/10 08:05:48;;;;;;;;;;;19.40;85.10;;;;;;4932833;29;19929;-72
2023/10/10 08:08:17;;;;;;;;;;;19.40;85.10;;;;;;4933045;29;19915;-73
2023/10/10 08:10:45;;;;;;;;;;;19.40;85.00;;;;;;4932919;29;19921;-65
2023/10/10 08:13:11;;;;;;;;;;;19.50;85.00;;;;;;4933456;29;20266;-72
2023/10/10 08:18:39;;;;;;;;;;;19.60;85.00;;;;;;4928756;29;19921;-72
2023/10/10 08:23:29;;;;;;;;;;;19.70;85.10;;;;;;4934272;29;19922;-72
2023/10/10 08:25:56;;;;;;;;;;;19.80;85.20;;;;;;4934141;29;19915;-72
2023/10/10 08:28:23;;;;;;;;;;;20.00;85.30;;;;;;4933804;29;19960;-72
2023/10/10 08:30:52;;;;;;;;;;;20.20;85.30;;;;;;4932871;29;20583;-72
2023/10/10 08:33:18;;;;;;;;;;;20.40;85.30;;;;;;4931609;29;20006;-73
2023/10/10 08:35:44;;;;;;;;;;;20.60;85.10;;;;;;4933765;29;19911;-75
2023/10/10 08:38:13;;;;;;;;;;;20.70;84.90;;;;;;4933598;29;19922;-76
2023/10/10 08:40:40;;;;;;;;;;;20.70;84.90;;;;;;4934456;29;20370;-75
2023/10/10 08:43:09;;;;;;;;;;;20.80;84.80;;;;;;4934923;29;19990;-76
2023/10/10 08:45:39;;;;;;;;;;;20.80;84.80;;;;;;4932965;29;20393;-72
2023/10/10 08:48:12;;;;;;;;;;;20.80;84.80;;;;;;4932605;29;20386;-72
2023/10/10 08:50:46;;;;;;;;;;;20.90;84.90;;;;;;4931383;29;20375;-72
2023/10/10 08:53:12;;;;;;;;;;;20.80;84.90;;;;;;4932934;29;20009;-72
2023/10/10 08:55:41;;;;;;;;;;;20.90;85.00;;;;;;4931342;29;20414;-72
2023/10/10 08:58:07;;;;;;;;;;;21.00;85.00;;;;;;4932141;29;19922;-72
2023/10/10 09:00:33;;;;;;;;;;;21.10;85.00;;;;;;4932035;29;19926;-72
2023/10/10 09:02:59;;;;;;;;;;;21.10;84.90;;;;;;4932456;29;19922;-72
2023/10/10 09:05:25;;;;;;;;;;;21.10;84.90;;;;;;4933130;29;19923;-70
2023/10/10 09:07:53;;;;;;;;;;;21.10;84.90;;;;;;4928473;29;19926;-71
2023/10/10 09:10:28;;;;;;;;;;;21.20;84.90;;;;;;4918338;29;19915;-68
2023/10/10 09:12:58;;;;;;;;;;;21.30;85.00;;;;;;4913597;29;20253;-71
2023/10/10 09:15:27;;;;;;;;;;;21.40;85.00;;;;;;4915234;29;20002;-79
2023/10/10 09:18:10;;;;;;;;;;;21.50;85.10;;;;;;4915969;29;19923;-71
2023/10/10 09:20:37;;;;;;;;;;;21.70;85.20;;;;;;4921699;29;19911;-72
2023/10/10 09:23:18;;;;;;;;;;;22.00;85.20;;;;;;4932674;29;20338;-71
2023/10/10 09:25:48;;;;;;;;;;;22.20;85.00;;;;;;4931170;29;20014;-72
2023/10/10 09:28:16;;;;;;;;;;;22.30;85.00;;;;;;4932646;29;20459;-70
2023/10/10 09:30:59;;;;;;;;;;;22.40;84.90;;;;;;4928893;29;19918;-71
2023/10/10 09:35:53;;;;;;;;;;;22.60;84.80;;;;;;4932207;29;19978;-70
2023/10/10 09:38:21;;;;;;;;;;;22.80;85.00;;;;;;4932190;29;19921;-72
2023/10/10 09:40:48;;;;;;;;;;;22.90;84.90;;;;;;4932146;29;19911;-71
2023/10/10 09:43:35;;;;;;;;;;;23.00;84.80;;;;;;4931861;29;19918;-60
2023/10/10 09:46:11;;;;;;;;;;;23.10;85.30;;;;;;4931786;29;19911;-70
2023/10/10 09:51:16;;;;;;;;;;;23.20;84.60;;;;;;4931867;29;20001;-71
2023/10/10 09:53:46;;;;;;;;;;;23.20;84.60;;;;;;4931957;29;19923;-72
2023/10/10 09:56:15;;;;;;;;;;;23.30;85.00;;;;;;4930603;29;20402;-72
2023/10/10 09:58:43;;;;;;;;;;;23.40;84.80;;;;;;4931611;29;19945;-72
2023/10/10 10:01:16;;;;;;;;;;;23.40;84.80;;;;;;4931867;29;19949;-70
2023/10/10 10:03:55;;;;;;;;;;;23.50;84.80;;;;;;4931476;29;19974;-66
2023/10/10 10:06:36;;;;;;;;;;;23.50;84.80;;;;;;4931735;29;20379;-73
2023/10/10 10:09:08;;;;;;;;;;;23.80;85.40;;;;;;4931579;29;19966;-73
2023/10/10 10:11:46;;;;;;;;;;;24.20;85.50;;;;;;4931488;29;19911;-69
2023/10/10 10:14:17;;;;;;;;;;;24.60;85.30;;;;;;4931686;29;19915;-72
2023/10/10 10:16:58;;;;;;;;;;;24.70;84.90;;;;;;4931541;29;19911;-72
2023/10/10 10:19:28;;;;;;;;;;;24.70;84.70;;;;;;4931446;29;19914;-71
2023/10/10 10:22:08;;;;;;;;;;;24.60;84.60;;;;;;4930243;29;20367;-71
2023/10/10 10:24:44;;;;;;;;;;;24.60;84.90;;;;;;4931346;29;19915;-72
2023/10/10 10:27:27;;;;;;;;;;;24.80;85.20;;;;;;4931377;29;19915;-71
2023/10/10 10:30:08;;;;;;;;;;;25.10;85.20;;;;;;4931021;29;19915;-72
2023/10/10 10:32:35;;;;;;;;;;;25.50;85.40;;;;;;4931381;29;19926;-71
2023/10/10 10:35:01;;;;;;;;;;;25.70;85.30;;;;;;4931473;29;20379;-72
2023/10/10 10:37:28;;;;;;;;;;;26.10;85.60;;;;;;4931250;29;20014;-71
2023/10/10 10:42:38;;;;;;;;;;;26.30;84.40;;;;;;4931278;29;20005;-72
2023/10/10 10:45:24;;;;;;;;;;;25.90;84.00;;;;;;4931064;29;20390;-72
2023/10/10 10:47:59;;;;;;;;;;;25.50;83.90;;;;;;4930939;29;19914;-72
2023/10/10 10:50:40;;;;;;;;;;;25.10;84.00;;;;;;4931009;29;19915;-72
2023/10/10 10:53:20;;;;;;;;;;;24.70;84.10;;;;;;4929545;29;19914;-73
2023/10/10 10:55:52;;;;;;;;;;;24.40;84.40;;;;;;4929206;29;19927;-72
2023/10/10 10:58:20;;;;;;;;;;;24.30;84.70;;;;;;4930615;29;19934;-72
2023/10/10 11:03:35;;;;;;;;;;;24.20;84.90;;;;;;4930367;29;19922;-73
2023/10/10 11:06:06;;;;;;;;;;;24.20;84.80;;;;;;4929656;29;19914;-72
2023/10/10 11:14:18;;;;;;;;;;;24.00;85.00;;;;;;4930916;29;19934;-64
2023/10/10 11:16:56;;;;;;;;;;;24.10;85.00;;;;;;4928983;29;19910;-72
2023/10/10 11:21:48;;;;;;;;;;;24.10;84.80;;;;;;4929660;29;19942;-70
2023/10/10 11:24:15;;;;;;;;;;;24.20;85.00;;;;;;4929898;29;19974;-71
2023/10/10 11:26:43;;;;;;;;;;;24.30;85.00;;;;;;4929906;29;19919;-72
2023/10/10 11:29:27;;;;;;;;;;;24.40;84.80;;;;;;4928655;29;20343;-73
2023/10/10 11:32:11;;;;;;;;;;;24.30;84.60;;;;;;4928537;29;19919;-69
2023/10/10 11:34:44;;;;;;;;;;;24.20;84.50;;;;;;4928883;29;19915;-71
2023/10/10 11:37:26;;;;;;;;;;;24.10;84.60;;;;;;4928631;29;19911;-70
2023/10/10 11:42:55;;;;;;;;;;;24.20;84.90;;;;;;4928873;29;19978;-71
2023/10/10 11:45:26;;;;;;;;;;;24.20;84.90;;;;;;4927408;29;19914;-73
2023/10/10 11:47:51;;;;;;;;;;;24.20;84.90;;;;;;4929303;29;19978;-71
2023/10/10 11:50:19;;;;;;;;;;;24.40;85.10;;;;;;4930110;29;19919;-71
2023/10/10 11:52:52;;;;;;;;;;;24.50;84.90;;;;;;4930319;29;19921;-72
2023/10/10 11:55:25;;;;;;;;;;;24.60;84.80;;;;;;4930271;29;19949;-72
2023/10/10 11:57:51;;;;;;;;;;;24.60;84.60;;;;;;4928307;29;19926;-70
2023/10/10 12:00:22;;;;;;;;;;;24.50;84.50;;;;;;4929828;29;19933;-71
2023/10/10 12:02:51;;;;;;;;;;;24.50;84.70;;;;;;4929705;29;19917;-72
2023/10/10 12:08:05;;;;;;;;;;;24.90;85.10;;;;;;4930367;29;19911;-71
2023/10/10 12:10:41;;;;;;;;;;;25.10;85.00;;;;;;4930120;29;19918;-72
2023/10/10 12:13:09;;;;;;;;;;;25.40;85.40;;;;;;4930477;29;19995;-71
2023/10/10 12:15:38;;;;;;;;;;;25.90;85.70;;;;;;4931567;29;19922;-73
2023/10/10 12:18:10;;;;;;;;;;;26.10;85.20;;;;;;4933709;29;19915;-71
2023/10/10 12:20:37;;;;;;;;;;;26.00;84.80;;;;;;4929894;29;20358;-72
2023/10/10 12:23:03;;;;;;;;;;;25.90;84.70;;;;;;4921065;29;19954;-72
2023/10/10 12:25:29;;;;;;;;;;;25.70;84.40;;;;;;4933489;29;20356;-72
2023/10/10 12:28:00;;;;;;;;;;;25.50;84.40;;;;;;4933390;29;19921;-72
2023/10/10 12:30:26;;;;;;;;;;;25.60;85.30;;;;;;4933017;29;19915;-72
2023/10/10 12:32:52;;;;;;;;;;;26.10;86.40;;;;;;4934205;29;20018;-72
2023/10/10 12:35:23;;;;;;;;;;;26.80;86.50;;;;;;4933781;29;19914;-72
2023/10/10 12:37:48;;;;;;;;;;;27.30;86.30;;;;;;4933134;29;19969;-72
2023/10/10 12:40:15;;;;;;;;;;;27.40;85.70;;;;;;4933249;29;19942;-71
2023/10/10 12:42:40;;;;;;;;;;;27.20;84.90;;;;;;4933534;29;20655;-72
2023/10/10 12:45:06;;;;;;;;;;;26.90;84.60;;;;;;4933138;29;20049;-72
2023/10/10 12:47:32;;;;;;;;;;;26.60;84.70;;;;;;4932886;29;19934;-72
2023/10/10 12:50:04;;;;;;;;;;;26.40;84.60;;;;;;4933292;29;19918;-72
2023/10/10 12:52:35;;;;;;;;;;;26.10;84.50;;;;;;4931760;29;19938;-72
2023/10/10 12:55:09;;;;;;;;;;;25.90;84.60;;;;;;4932325;29;19947;-72
2023/10/10 12:57:39;;;;;;;;;;;25.80;84.50;;;;;;4931773;29;19922;-72
2023/10/10 13:00:24;;;;;;;;;;;25.50;84.30;;;;;;4930940;29;19977;-72
2023/10/10 13:02:50;;;;;;;;;;;25.30;84.50;;;;;;4933104;29;19911;-71
2023/10/10 13:05:18;;;;;;;;;;;25.10;84.50;;;;;;4933084;29;19970;-71
2023/10/10 13:07:43;;;;;;;;;;;24.90;84.50;;;;;;4933491;29;19911;-70
2023/10/10 13:10:13;;;;;;;;;;;24.80;84.80;;;;;;4932500;29;20407;-70
2023/10/10 13:12:46;;;;;;;;;;;24.70;84.60;;;;;;4932453;29;19918;-70
2023/10/10 13:15:18;;;;;;;;;;;24.70;84.80;;;;;;4932402;29;19923;-71
2023/10/10 13:17:53;;;;;;;;;;;24.60;84.80;;;;;;4932697;29;20243;-70
2023/10/10 13:20:19;;;;;;;;;;;24.80;85.10;;;;;;4931966;29;19918;-71
2023/10/10 13:22:50;;;;;;;;;;;24.90;84.90;;;;;;4933052;29;19958;-70
2023/10/10 13:25:19;;;;;;;;;;;24.90;84.60;;;;;;4932201;29;19998;-71
2023/10/10 13:27:52;;;;;;;;;;;24.80;84.60;;;;;;4932449;29;19911;-71
2023/10/10 13:30:17;;;;;;;;;;;24.80;84.80;;;;;;4932655;29;19918;-71
2023/10/10 13:32:43;;;;;;;;;;;24.90;84.90;;;;;;4932242;29;19974;-70
2023/10/10 13:35:09;;;;;;;;;;;25.00;85.20;;;;;;4932363;29;19911;-71
2023/10/10 13:37:35;;;;;;;;;;;25.30;85.40;;;;;;4931949;29;19922;-71
2023/10/10 13:40:01;;;;;;;;;;;25.30;85.10;;;;;;4931986;29;19919;-71
2023/10/10 13:42:27;;;;;;;;;;;25.10;84.80;;;;;;4932171;29;19926;-72
2023/10/10 13:45:08;;;;;;;;;;;25.00;84.80;;;;;;4931899;29;20001;-72
2023/10/10 13:47:36;;;;;;;;;;;25.00;85.00;;;;;;4932118;29;19919;-73
2023/10/10 13:52:46;;;;;;;;;;;25.00;84.90;;;;;;4932343;29;19917;-72
2023/10/10 13:55:12;;;;;;;;;;;25.00;84.80;;;;;;4932325;29;19911;-73
2023/10/10 13:57:37;;;;;;;;;;;24.90;84.70;;;;;;4931653;29;19937;-72
2023/10/10 14:00:18;;;;;;;;;;;24.90;84.70;;;;;;4931875;29;19915;-72
2023/10/10 14:02:45;;;;;;;;;;;24.80;84.60;;;;;;4930645;29;20431;-71
2023/10/10 14:05:15;;;;;;;;;;;24.80;84.60;;;;;;4932211;29;19915;-73
2023/10/10 14:07:46;;;;;;;;;;;24.70;84.70;;;;;;4932232;29;19919;-73
2023/10/10 14:10:11;;;;;;;;;;;24.70;84.80;;;;;;4932074;29;19950;-77
2023/10/10 14:12:44;;;;;;;;;;;24.70;84.50;;;;;;4932206;29;20594;-72
2023/10/10 14:15:11;;;;;;;;;;;24.60;84.50;;;;;;4931804;29;19919;-72
2023/10/10 14:17:37;;;;;;;;;;;24.60;84.70;;;;;;4931736;29;19921;-72
2023/10/10 14:20:19;;;;;;;;;;;24.60;84.90;;;;;;4931651;29;19911;-71
2023/10/10 14:22:46;;;;;;;;;;;24.80;84.90;;;;;;4930444;29;19994;-70
2023/10/10 14:25:14;;;;;;;;;;;24.90;84.70;;;;;;4931955;29;19922;-71
2023/10/10 14:27:43;;;;;;;;;;;24.90;84.90;;;;;;4931764;29;19962;-71
2023/10/10 14:30:20;;;;;;;;;;;24.80;84.20;;;;;;4931499;29;19915;-71
2023/10/10 14:32:58;;;;;;;;;;;24.60;84.30;;;;;;4930309;29;20005;-70
2023/10/10 14:35:23;;;;;;;;;;;24.50;84.50;;;;;;4931493;29;19946;-70
2023/10/10 14:37:55;;;;;;;;;;;24.50;84.70;;;;;;4928906;29;19958;-71
2023/10/10 14:40:22;;;;;;;;;;;24.50;84.70;;;;;;4929691;29;19971;-71
2023/10/10 14:42:52;;;;;;;;;;;24.40;84.60;;;;;;4931037;29;19911;-71
2023/10/10 14:45:28;;;;;;;;;;;24.30;84.50;;;;;;4929678;29;19970;-72
2023/10/10 14:47:57;;;;;;;;;;;24.30;84.70;;;;;;4933580;29;19915;-71
2023/10/10 14:50:23;;;;;;;;;;;24.40;84.80;;;;;;4930957;29;19918;-71
2023/10/10 14:52:50;;;;;;;;;;;24.40;84.60;;;;;;4929875;29;20023;-70
2023/10/10 14:55:25;;;;;;;;;;;24.30;84.50;;;;;;4930925;29;20005;-72
2023/10/10 14:57:55;;;;;;;;;;;24.20;84.60;;;;;;4930459;29;19923;-70
2023/10/10 15:00:22;;;;;;;;;;;24.20;84.80;;;;;;4930679;29;20001;-72
2023/10/10 15:02:48;;;;;;;;;;;24.30;84.70;;;;;;4931011;29;19911;-73
2023/10/10 15:05:14;;;;;;;;;;;24.30;84.70;;;;;;4931049;29;19926;-73
2023/10/10 15:07:41;;;;;;;;;;;24.30;84.70;;;;;;4930694;29;19915;-73
2023/10/10 15:10:08;;;;;;;;;;;24.30;84.60;;;;;;4930997;29;19919;-73
2023/10/10 15:12:34;;;;;;;;;;;24.20;84.50;;;;;;4931122;29;19915;-73
2023/10/10 15:15:00;;;;;;;;;;;24.10;84.50;;;;;;4929270;29;19915;-73
2023/10/10 15:17:29;;;;;;;;;;;24.00;84.70;;;;;;4930018;29;20342;-73
2023/10/10 15:19:54;;;;;;;;;;;23.90;84.60;;;;;;4931172;29;19954;-71
2023/10/10 15:22:20;;;;;;;;;;;23.90;84.60;;;;;;4931239;29;19965;-72
2023/10/10 15:24:49;;;;;;;;;;;23.80;84.50;;;;;;4931899;29;19915;-76
2023/10/10 15:27:19;;;;;;;;;;;23.60;84.50;;;;;;4931833;29;19948;-78
2023/10/10 15:29:44;;;;;;;;;;;23.50;84.70;;;;;;4930835;29;19915;-74
2023/10/10 15:32:13;;;;;;;;;;;23.50;84.80;;;;;;4931841;29;19926;-76
2023/10/10 15:34:38;;;;;;;;;;;23.50;84.80;;;;;;4930361;29;19910;-73
2023/10/10 15:37:14;;;;;;;;;;;23.50;84.80;;;;;;4930331;29;20394;-75
2023/10/10 15:39:43;;;;;;;;;;;23.60;84.90;;;;;;4930486;29;19919;-75
2023/10/10 15:42:08;;;;;;;;;;;23.60;84.80;;;;;;4931810;29;19915;-77
2023/10/10 15:44:34;;;;;;;;;;;23.60;84.70;;;;;;4932555;29;20047;-66
2023/10/10 15:47:01;;;;;;;;;;;23.70;84.80;;;;;;4930983;29;19991;-75
2023/10/10 15:49:27;;;;;;;;;;;23.70;84.80;;;;;;4932050;29;19910;-76
2023/10/10 15:51:53;;;;;;;;;;;23.70;84.60;;;;;;4933310;29;20331;-73
2023/10/10 15:54:19;;;;;;;;;;;23.60;84.60;;;;;;4933523;29;19921;-76
2023/10/10 15:56:47;;;;;;;;;;;23.50;84.50;;;;;;4934640;29;19911;-78
2023/10/10 15:59:16;;;;;;;;;;;23.40;84.60;;;;;;4934212;29;20030;-72
2023/10/10 16:01:46;;;;;;;;;;;23.40;84.60;;;;;;4933100;29;19919;-74
2023/10/10 16:04:17;;;;;;;;;;;23.20;84.60;;;;;;4933221;29;19926;-74
2023/10/10 16:06:46;;;;;;;;;;;23.20;84.70;;;;;;4934468;29;20046;-76
2023/10/10 16:09:20;;;;;;;;;;;23.10;84.70;;;;;;4933140;29;20009;-73
2023/10/10 16:11:52;;;;;;;;;;;23.00;84.70;;;;;;4934263;29;20248;-73
2023/10/10 16:14:18;;;;;;;;;;;22.90;84.50;;;;;;4934249;29;19910;-72
2023/10/10 16:16:45;;;;;;;;;;;22.80;84.70;;;;;;4932581;29;20025;-70
2023/10/10 16:19:14;;;;;;;;;;;22.70;84.80;;;;;;4928912;29;19924;-72
2023/10/10 16:21:44;;;;;;;;;;;22.60;84.80;;;;;;4934136;29;19970;-71
2023/10/10 16:24:15;;;;;;;;;;;22.60;84.80;;;;;;4914954;29;20519;-71
2023/10/10 16:26:44;;;;;;;;;;;22.60;84.80;;;;;;4915009;29;19926;-71
2023/10/10 16:29:19;;;;;;;;;;;22.50;84.80;;;;;;4919817;29;20439;-71
2023/10/10 16:31:45;;;;;;;;;;;22.40;84.70;;;;;;4919385;29;19951;-71
2023/10/10 16:34:11;;;;;;;;;;;22.40;84.70;;;;;;4929574;29;19921;-71
2023/10/10 16:36:37;;;;;;;;;;;22.30;84.70;;;;;;4919487;29;20473;-71
2023/10/10 16:39:10;;;;;;;;;;;22.20;84.80;;;;;;4928047;29;20432;-70
2023/10/10 16:41:36;;;;;;;;;;;22.10;84.80;;;;;;4914665;29;19980;-71
2023/10/10 16:44:03;;;;;;;;;;;22.00;84.90;;;;;;4914652;29;19948;-70
2023/10/10 16:46:31;;;;;;;;;;;21.90;84.90;;;;;;4913062;29;20420;-70
2023/10/10 16:48:57;;;;;;;;;;;21.90;85.00;;;;;;4914193;29;19950;-70
2023/10/10 16:51:26;;;;;;;;;;;21.90;85.00;;;;;;4913843;29;19923;-70
2023/10/10 16:53:53;;;;;;;;;;;22.00;85.00;;;;;;4914154;29;19915;-72
2023/10/10 16:56:22;;;;;;;;;;;22.00;85.00;;;;;;4914219;29;19926;-72
2023/10/10 16:58:49;;;;;;;;;;;22.00;84.90;;;;;;4913914;29;19970;-71
2023/10/10 17:01:16;;;;;;;;;;;21.90;84.80;;;;;;4913055;29;19915;-71
2023/10/10 17:03:45;;;;;;;;;;;21.90;84.80;;;;;;4913779;29;19998;-71
2023/10/10 17:06:35;;;;;;;;;;;21.90;84.90;;;;;;4914155;29;20403;-71
2023/10/10 17:09:01;;;;;;;;;;;21.80;84.80;;;;;;4913830;29;19915;-73
2023/10/10 17:11:27;;;;;;;;;;;21.80;84.80;;;;;;4914181;29;19918;-76
2023/10/10 17:13:55;;;;;;;;;;;21.80;84.80;;;;;;4912788;29;19922;-71
2023/10/10 17:16:32;;;;;;;;;;;21.80;84.80;;;;;;4914009;29;19945;-73
2023/10/10 17:18:57;;;;;;;;;;;21.80;84.80;;;;;;4913203;29;20275;-70